Time;durP1;ratioP1;P1;durP2;ratioP2;P2;SDS_P1;SDS_P2;PMS_P1;PMS_P2;Temp;Humidity;BMP_temperature;BMP_pressure;BME280_temperature;BME280_humidity;BME280_pressure;Samples;Min_cycle;Max_cycle;Signal;HPM_P1;HPM_P2
2023/07/13 00:01:52;;;;;;;;;;;;;;;21.24;50.78;100811.31;4937189;29;1259;-14
2023/07/13 00:04:18;;;;;;;;;;;;;;;21.24;54.49;100809.50;4937883;29;1079;-15
2023/07/13 00:06:44;;;;;;;;;;;;;;;22.92;48.43;100809.88;4938039;29;1077;-15
2023/07/13 00:09:12;;;;;;;;;;;;;;;23.75;47.49;100802.47;4937243;29;1083;-15
2023/07/13 00:11:38;;;;;;;;;;;;;;;21.39;50.63;100796.53;4939152;29;1070;-15
2023/07/13 00:14:03;;;;;;;;;;;;;;;20.78;51.96;100791.31;4930866;29;2462;-15
2023/07/13 00:16:29;;;;;;;;;;;;;;;22.39;50.31;100787.16;4940841;29;1919;-16
2023/07/13 00:18:54;;;;;;;;;;;;;;;23.54;47.30;100792.94;4941443;29;994;-15
2023/07/13 00:21:19;;;;;;;;;;;;;;;21.45;50.53;100789.75;4941135;29;1019;-15
2023/07/13 00:23:45;;;;;;;;;;;;;;;20.70;54.80;100791.16;4940697;29;1121;-15
2023/07/13 00:26:11;;;;;;;;;;;;;;;22.69;49.34;100788.88;4940131;29;1085;-15
2023/07/13 00:28:37;;;;;;;;;;;;;;;23.35;48.93;100783.22;4923507;29;1081;-15
2023/07/13 00:31:02;;;;;;;;;;;;;;;21.02;52.00;100776.69;4940035;29;1067;-15
2023/07/13 00:33:28;;;;;;;;;;;;;;;20.61;53.94;100763.44;4929647;29;1185;-16
2023/07/13 00:35:54;;;;;;;;;;;;;;;22.58;49.89;100771.13;4940947;29;1906;-16
2023/07/13 00:38:20;;;;;;;;;;;;;;;23.49;48.47;100773.75;4923250;29;1535;-15
2023/07/13 00:40:46;;;;;;;;;;;;;;;21.11;51.89;100766.13;4940614;29;1275;-15
2023/07/13 00:43:12;;;;;;;;;;;;;;;20.58;52.83;100761.03;4919299;29;2559;-15
2023/07/13 00:45:44;;;;;;;;;;;;;;;22.35;50.70;100763.50;4940668;29;1237;-15
2023/07/13 00:48:10;;;;;;;;;;;;;;;23.31;48.72;100763.03;4940919;29;1034;-15
2023/07/13 00:50:35;;;;;;;;;;;;;;;21.17;51.72;100750.38;4907300;29;1116;-15
2023/07/13 00:53:01;;;;;;;;;;;;;;;20.38;54.42;100752.13;4923760;29;1163;-14
2023/07/13 00:55:26;;;;;;;;;;;;;;;22.52;49.88;100745.78;4923160;29;1969;-14
2023/07/13 00:57:52;;;;;;;;;;;;;;;23.34;49.08;100752.00;4940403;29;1106;-14
2023/07/13 01:00:17;;;;;;;;;;;;;;;21.22;51.28;100743.75;4923249;29;1606;-15
2023/07/13 01:02:44;;;;;;;;;;;;;;;20.33;56.33;100738.34;4940192;29;828;-14
2023/07/13 01:05:13;;;;;;;;;;;;;;;22.76;49.12;100747.00;4939635;29;1085;-15
2023/07/13 01:07:39;;;;;;;;;;;;;;;23.59;47.96;100744.13;4922858;29;1237;-16
2023/07/13 01:10:06;;;;;;;;;;;;;;;20.79;52.13;100736.84;4923224;29;1221;-16
2023/07/13 01:12:31;;;;;;;;;;;;;;;20.35;54.82;100739.91;4915798;29;2381;-15
2023/07/13 01:14:58;;;;;;;;;;;;;;;22.57;49.67;100734.59;4936349;29;1030;-14
2023/07/13 01:17:23;;;;;;;;;;;;;;;23.42;48.50;100730.59;4940104;29;1989;-14
2023/07/13 01:19:49;;;;;;;;;;;;;;;20.95;51.72;100722.09;4939716;29;1129;-14
2023/07/13 01:22:15;;;;;;;;;;;;;;;20.19;53.43;100727.91;4922643;29;1055;-16
2023/07/13 01:24:42;;;;;;;;;;;;;;;22.26;50.31;100717.00;4939378;29;1073;-16
2023/07/13 01:27:08;;;;;;;;;;;;;;;23.52;48.21;100725.16;4939833;29;823;-16
2023/07/13 01:29:34;;;;;;;;;;;;;;;21.16;51.07;100721.94;4939259;29;1100;-16
2023/07/13 01:32:00;;;;;;;;;;;;;;;20.29;56.27;100719.06;4922814;29;1103;-15
2023/07/13 01:34:26;;;;;;;;;;;;;;;22.69;48.84;100716.47;4930046;29;1074;-15
2023/07/13 01:36:53;;;;;;;;;;;;;;;23.52;47.89;100719.78;4940012;29;1972;-16
2023/07/13 01:39:21;;;;;;;;;;;;;;;20.61;52.22;100712.66;4939238;29;987;-15
2023/07/13 01:41:47;;;;;;;;;;;;;;;20.25;56.43;100718.50;4938198;29;2338;-16
2023/07/13 01:44:12;;;;;;;;;;;;;;;22.70;49.01;100715.47;4936356;29;984;-16
2023/07/13 01:46:38;;;;;;;;;;;;;;;23.41;47.96;100710.13;4939988;29;1154;-16
2023/07/13 01:49:03;;;;;;;;;;;;;;;20.60;52.65;100708.28;4939441;29;1129;-15
2023/07/13 01:51:29;;;;;;;;;;;;;;;20.15;57.32;100705.13;4939445;29;828;-16
2023/07/13 01:53:54;;;;;;;;;;;;;;;22.71;48.94;100711.78;4922273;29;1114;-14
2023/07/13 01:56:20;;;;;;;;;;;;;;;23.53;47.76;100715.22;4939230;29;1950;-16
2023/07/13 01:58:46;;;;;;;;;;;;;;;20.58;52.36;100704.91;4922488;29;1171;-16
2023/07/13 02:01:11;;;;;;;;;;;;;;;20.61;56.25;100706.44;4939089;29;1154;-15
2023/07/13 02:03:37;;;;;;;;;;;;;;;23.18;47.66;100709.78;4939139;29;1098;-14
2023/07/13 02:06:02;;;;;;;;;;;;;;;22.51;46.53;100707.38;4939389;29;1184;-15
2023/07/13 02:08:28;;;;;;;;;;;;;;;20.34;53.08;100711.47;4921810;29;1164;-15
2023/07/13 02:10:54;;;;;;;;;;;;;;;21.13;54.35;100708.84;4921967;29;1194;-16
2023/07/13 02:13:19;;;;;;;;;;;;;;;23.29;47.27;100708.69;4911603;29;2355;-14
2023/07/13 02:15:45;;;;;;;;;;;;;;;23.89;45.74;100703.50;4921166;29;1903;-16
2023/07/13 02:18:10;;;;;;;;;;;;;;;24.13;45.31;100710.78;4921713;29;1127;-15
2023/07/13 02:20:36;;;;;;;;;;;;;;;24.26;44.91;100707.66;4921585;29;1082;-15
2023/07/13 02:23:01;;;;;;;;;;;;;;;24.45;44.89;100709.22;4921310;29;1991;-15
2023/07/13 02:25:27;;;;;;;;;;;;;;;24.69;44.11;100706.72;4938825;29;1114;-15
2023/07/13 02:27:52;;;;;;;;;;;;;;;24.69;43.95;100706.72;4938504;29;1095;-15
2023/07/13 02:30:18;;;;;;;;;;;;;;;24.94;43.40;100696.78;4921246;29;1082;-15
2023/07/13 02:32:44;;;;;;;;;;;;;;;24.90;43.21;100708.03;4938698;29;1237;-15
2023/07/13 02:35:10;;;;;;;;;;;;;;;24.92;43.56;100708.75;4938313;29;1910;-14
2023/07/13 02:37:37;;;;;;;;;;;;;;;25.10;43.09;100695.09;4938682;29;1181;-14
2023/07/13 02:40:08;;;;;;;;;;;;;;;25.06;43.15;100710.75;4921439;29;1204;-14
2023/07/13 02:42:34;;;;;;;;;;;;;;;25.10;43.05;100707.72;4917492;29;2442;-14
2023/07/13 02:45:00;;;;;;;;;;;;;;;25.21;42.89;100707.34;4928891;29;1241;-16
2023/07/13 02:47:26;;;;;;;;;;;;;;;25.32;42.68;100706.16;4935280;29;1062;-14
2023/07/13 02:49:52;;;;;;;;;;;;;;;25.37;42.54;100705.66;4921648;29;1214;-15
2023/07/13 02:52:18;;;;;;;;;;;;;;;25.45;42.39;100708.31;4921084;29;1150;-15
2023/07/13 02:54:43;;;;;;;;;;;;;;;25.59;41.94;100709.44;4938800;29;1126;-14
2023/07/13 02:57:09;;;;;;;;;;;;;;;25.59;41.83;100706.75;4921052;29;1911;-15
2023/07/13 02:59:35;;;;;;;;;;;;;;;25.85;41.30;100702.97;4921468;29;1115;-15
2023/07/13 03:02:01;;;;;;;;;;;;;;;25.75;41.19;100711.28;4921310;29;1188;-14
2023/07/13 03:04:27;;;;;;;;;;;;;;;25.83;41.37;100701.47;4937967;29;948;-15
2023/07/13 03:06:57;;;;;;;;;;;;;;;25.89;41.34;100696.22;4921298;29;1134;-15
2023/07/13 03:09:26;;;;;;;;;;;;;;;25.79;41.28;100693.72;4921427;29;1220;-15
2023/07/13 03:11:54;;;;;;;;;;;;;;;25.84;41.06;100698.59;4919207;29;2244;-15
2023/07/13 03:14:25;;;;;;;;;;;;;;;25.90;40.96;100697.91;4902279;29;1405;-15
2023/07/13 03:16:51;;;;;;;;;;;;;;;25.94;41.18;100690.31;4936772;29;1977;-14
2023/07/13 03:19:18;;;;;;;;;;;;;;;25.85;41.39;100696.75;4921205;29;1362;-15
2023/07/13 03:21:48;;;;;;;;;;;;;;;25.81;41.44;100696.25;4920676;29;1136;-15
2023/07/13 03:24:13;;;;;;;;;;;;;;;25.92;41.07;100703.13;4921327;29;1130;-15
2023/07/13 03:26:39;;;;;;;;;;;;;;;25.91;40.81;100694.19;4937706;29;1050;-15
2023/07/13 03:29:05;;;;;;;;;;;;;;;25.94;41.53;100697.56;4920639;29;1271;-13
2023/07/13 03:31:32;;;;;;;;;;;;;;;25.96;40.93;100690.97;4920783;29;1070;-14
2023/07/13 03:33:58;;;;;;;;;;;;;;;25.88;43.36;100694.53;4921329;29;1287;-13
2023/07/13 03:36:24;;;;;;;;;;;;;;;26.04;42.39;100701.69;4920569;29;1922;-13
2023/07/13 03:38:54;;;;;;;;;;;;;;;26.04;43.14;100704.38;4902397;29;1244;-13
2023/07/13 03:41:22;;;;;;;;;;;;;;;26.06;44.28;100701.50;4920913;29;1225;-13
2023/07/13 03:43:48;;;;;;;;;;;;;;;26.06;43.29;100701.50;4915819;29;2550;-14
2023/07/13 03:46:16;;;;;;;;;;;;;;;26.14;44.27;100703.34;4923694;29;1187;-14
2023/07/13 03:48:43;;;;;;;;;;;;;;;26.21;45.00;100711.56;4924275;29;1116;-14
2023/07/13 03:51:09;;;;;;;;;;;;;;;26.19;44.92;100709.03;4941601;29;1154;-12
2023/07/13 03:53:38;;;;;;;;;;;;;;;26.30;45.32;100715.88;4924006;29;1313;-15
2023/07/13 03:56:03;;;;;;;;;;;;;;;26.07;42.45;100713.16;4941484;29;1989;-15
2023/07/13 03:58:31;;;;;;;;;;;;;;;25.78;39.08;100719.00;4941404;29;1093;-15
2023/07/13 04:01:02;;;;;;;;;;;;;;;25.58;37.52;100712.31;4924521;29;1267;-15
2023/07/13 04:03:28;;;;;;;;;;;;;;;25.63;38.57;100707.28;4923735;29;1209;-15
2023/07/13 04:05:55;;;;;;;;;;;;;;;26.00;38.61;100711.16;4941635;29;1095;-14
2023/07/13 04:08:22;;;;;;;;;;;;;;;25.76;39.03;100714.78;4924099;29;1148;-14
2023/07/13 04:10:47;;;;;;;;;;;;;;;26.28;40.04;100720.59;4941180;29;1105;-14
2023/07/13 04:13:14;;;;;;;;;;;;;;;26.40;39.39;100705.75;4929969;29;2197;-15
2023/07/13 04:15:40;;;;;;;;;;;;;;;26.59;39.56;100708.94;4923802;29;1910;-14
2023/07/13 04:18:06;;;;;;;;;;;;;;;26.65;39.74;100707.41;4940790;29;1135;-16
2023/07/13 04:20:32;;;;;;;;;;;;;;;26.69;39.93;100707.88;4940562;29;1091;-15
2023/07/13 04:22:58;;;;;;;;;;;;;;;26.71;40.42;100711.25;4940404;29;1093;-15
2023/07/13 04:25:23;;;;;;;;;;;;;;;26.74;40.63;100711.69;4941704;29;1089;-14
2023/07/13 04:27:49;;;;;;;;;;;;;;;26.72;40.95;100708.38;4939962;29;1029;-14
2023/07/13 04:30:15;;;;;;;;;;;;;;;26.84;40.69;100719.53;4940598;29;994;-14
2023/07/13 04:32:40;;;;;;;;;;;;;;;26.89;40.98;100719.84;4940357;29;1126;-14
2023/07/13 04:35:06;;;;;;;;;;;;;;;26.89;40.96;100717.13;4939925;29;1065;-15
2023/07/13 04:37:31;;;;;;;;;;;;;;;26.80;40.55;100718.25;4940263;29;1911;-16
2023/07/13 04:39:57;;;;;;;;;;;;;;;26.85;40.59;100717.69;4939749;29;1289;-16
2023/07/13 04:42:22;;;;;;;;;;;;;;;26.76;41.20;100733.09;4934310;29;2437;-15
2023/07/13 04:44:48;;;;;;;;;;;;;;;26.76;40.33;100730.41;4935402;29;1261;-15
2023/07/13 04:47:14;;;;;;;;;;;;;;;26.79;40.46;100730.06;4940068;29;1186;-14
2023/07/13 04:49:39;;;;;;;;;;;;;;;26.73;40.47;100728.06;4940019;29;1356;-15
2023/07/13 04:52:07;;;;;;;;;;;;;;;26.69;40.49;100726.78;4940229;29;1194;-15
2023/07/13 04:54:33;;;;;;;;;;;;;;;26.78;40.07;100723.81;4939834;29;1281;-15
2023/07/13 04:56:58;;;;;;;;;;;;;;;26.78;40.26;100733.78;4939473;29;1914;-14
2023/07/13 04:59:24;;;;;;;;;;;;;;;26.76;40.15;100728.56;4939806;29;1134;-15
2023/07/13 05:01:49;;;;;;;;;;;;;;;26.84;39.97;100730.34;4940448;29;1198;-13
2023/07/13 05:04:15;;;;;;;;;;;;;;;26.81;39.88;100729.88;4939328;29;1214;-14
2023/07/13 05:06:40;;;;;;;;;;;;;;;26.86;39.79;100731.00;4940545;29;1248;-14
2023/07/13 05:09:07;;;;;;;;;;;;;;;26.96;39.66;100730.75;4939533;29;1480;-14
2023/07/13 05:11:32;;;;;;;;;;;;;;;26.83;39.76;100733.22;4939901;29;1265;-14
2023/07/13 05:13:58;;;;;;;;;;;;;;;26.97;39.56;100724.34;4921518;29;2550;-16
2023/07/13 05:16:23;;;;;;;;;;;;;;;26.90;39.39;100735.03;4927142;29;1978;-13
2023/07/13 05:18:49;;;;;;;;;;;;;;;26.81;39.76;100732.59;4939522;29;1300;-14
2023/07/13 05:21:14;;;;;;;;;;;;;;;27.13;39.33;100730.63;4939886;29;1253;-14
2023/07/13 05:23:41;;;;;;;;;;;;;;;27.02;38.95;100737.31;4939602;29;1427;-14
2023/07/13 05:26:07;;;;;;;;;;;;;;;27.12;39.29;100748.72;4939505;29;1225;-13
2023/07/13 05:28:32;;;;;;;;;;;;;;;27.08;39.55;100741.97;4939165;29;1213;-14
2023/07/13 05:30:58;;;;;;;;;;;;;;;27.12;39.04;100737.06;4939501;29;1316;-13
2023/07/13 05:33:23;;;;;;;;;;;;;;;27.22;38.61;100734.94;4939382;29;1194;-14
2023/07/13 05:35:49;;;;;;;;;;;;;;;27.24;38.58;100737.47;4938504;29;1961;-13
2023/07/13 05:38:14;;;;;;;;;;;;;;;27.22;38.81;100744.91;4939471;29;1210;-14
2023/07/13 05:40:42;;;;;;;;;;;;;;;27.42;38.48;100741.66;4939070;29;1221;-14
2023/07/13 05:43:07;;;;;;;;;;;;;;;27.31;38.06;100741.06;4939090;29;2305;-14
2023/07/13 05:45:33;;;;;;;;;;;;;;;27.42;38.18;100756.00;4939548;29;1123;-14
2023/07/13 05:47:58;;;;;;;;;;;;;;;27.31;38.17;100748.38;4939395;29;1157;-16
2023/07/13 05:50:25;;;;;;;;;;;;;;;27.31;38.68;100754.59;4939610;29;1130;-14
2023/07/13 05:52:52;;;;;;;;;;;;;;;27.47;37.84;100748.19;4939014;29;1086;-15
2023/07/13 05:55:17;;;;;;;;;;;;;;;27.50;37.85;100749.66;4939230;29;1973;-15
2023/07/13 05:57:43;;;;;;;;;;;;;;;27.54;38.08;100751.00;4939138;29;1065;-15
2023/07/13 06:00:09;;;;;;;;;;;;;;;27.47;38.28;100763.56;4939186;29;1011;-15
2023/07/13 06:02:37;;;;;;;;;;;;;;;27.62;38.43;100753.59;4934688;29;1070;-15
2023/07/13 06:05:03;;;;;;;;;;;;;;;27.55;38.04;100752.66;4930592;29;1166;-15
2023/07/13 06:07:29;;;;;;;;;;;;;;;27.62;37.85;100748.19;4938864;29;1117;-15
2023/07/13 06:09:54;;;;;;;;;;;;;;;27.67;37.67;100744.09;4939652;29;1071;-15
2023/07/13 06:12:19;;;;;;;;;;;;;;;27.58;37.51;100746.03;4937509;29;2362;-15
2023/07/13 06:14:46;;;;;;;;;;;;;;;27.58;37.37;100751.44;4938725;29;1118;-16
2023/07/13 06:17:11;;;;;;;;;;;;;;;27.56;37.29;100751.63;4938456;29;1982;-15
2023/07/13 06:19:36;;;;;;;;;;;;;;;27.67;37.54;100752.19;4939017;29;1015;-16
2023/07/13 06:22:02;;;;;;;;;;;;;;;27.66;37.50;100750.53;4938943;29;1069;-15
2023/07/13 06:24:28;;;;;;;;;;;;;;;27.40;38.22;100749.94;4938837;29;1098;-16
2023/07/13 06:26:53;;;;;;;;;;;;;;;27.56;38.11;100750.81;4938641;29;1086;-16
2023/07/13 06:29:19;;;;;;;;;;;;;;;27.62;37.45;100750.91;4938913;29;1003;-15
2023/07/13 06:31:44;;;;;;;;;;;;;;;27.50;37.82;100750.53;4938813;29;1162;-16
2023/07/13 06:34:10;;;;;;;;;;;;;;;27.60;37.89;100744.84;4938318;29;1435;-16
2023/07/13 06:36:38;;;;;;;;;;;;;;;27.62;37.36;100741.94;4938865;29;1910;-15
2023/07/13 06:39:04;;;;;;;;;;;;;;;27.61;37.77;100732.16;4938813;29;1195;-16
2023/07/13 06:41:30;;;;;;;;;;;;;;;27.68;37.12;100740.34;4938536;29;985;-16
2023/07/13 06:43:57;;;;;;;;;;;;;;;27.62;37.37;100739.25;4917453;29;2693;-16
2023/07/13 06:46:23;;;;;;;;;;;;;;;27.54;37.21;100742.88;4939249;29;1161;-16
2023/07/13 06:48:48;;;;;;;;;;;;;;;27.56;37.35;100726.50;4938645;29;1113;-14
2023/07/13 06:51:14;;;;;;;;;;;;;;;27.66;37.33;100737.00;4938808;29;1138;-15
2023/07/13 06:53:40;;;;;;;;;;;;;;;27.68;37.74;100732.22;4938131;29;1121;-15
2023/07/13 06:56:05;;;;;;;;;;;;;;;27.71;37.93;100732.72;4938118;29;1983;-16
2023/07/13 06:58:31;;;;;;;;;;;;;;;27.66;36.84;100727.03;4938255;29;1031;-16
2023/07/13 07:00:56;;;;;;;;;;;;;;;27.70;36.79;100725.66;4938868;29;1040;-15
2023/07/13 07:03:22;;;;;;;;;;;;;;;27.75;36.79;100722.38;4938142;29;1042;-16
2023/07/13 07:05:47;;;;;;;;;;;;;;;27.68;36.65;100724.13;4938806;29;849;-16
2023/07/13 07:08:13;;;;;;;;;;;;;;;27.70;36.90;100725.66;4938412;29;1344;-14
2023/07/13 07:10:39;;;;;;;;;;;;;;;27.74;37.50;100726.13;4938650;29;1257;-15
2023/07/13 07:13:05;;;;;;;;;;;;;;;27.59;37.29;100728.81;4928622;29;2313;-15
2023/07/13 07:15:30;;;;;;;;;;;;;;;27.70;36.85;100722.97;4938773;29;1918;-14
2023/07/13 07:17:56;;;;;;;;;;;;;;;27.54;37.15;100725.81;4938135;29;1003;-14
2023/07/13 07:20:21;;;;;;;;;;;;;;;27.71;36.70;100726.50;4939039;29;1222;-15
2023/07/13 07:22:47;;;;;;;;;;;;;;;27.55;37.50;100731.03;4942113;29;1264;-16
2023/07/13 07:25:12;;;;;;;;;;;;;;;27.54;36.92;100721.28;4942097;29;1186;-13
2023/07/13 07:27:38;;;;;;;;;;;;;;;27.63;37.25;100724.69;4941968;29;1308;-15
2023/07/13 07:30:04;;;;;;;;;;;;;;;27.60;36.62;100716.97;4941789;29;1419;-15
2023/07/13 07:32:30;;;;;;;;;;;;;;;27.73;37.01;100716.31;4941919;29;1214;-15
2023/07/13 07:34:56;;;;;;;;;;;;;;;27.67;37.03;100720.59;4941767;29;1292;-15
2023/07/13 07:37:21;;;;;;;;;;;;;;;27.73;36.40;100716.31;4941304;29;1972;-15
2023/07/13 07:39:47;;;;;;;;;;;;;;;27.67;36.81;100722.47;4941696;29;1245;-15
2023/07/13 07:42:12;;;;;;;;;;;;;;;27.79;36.82;100722.84;4936930;29;2270;-15
2023/07/13 07:44:38;;;;;;;;;;;;;;;27.85;36.44;100720.25;4936298;29;1265;-15
2023/07/13 07:47:03;;;;;;;;;;;;;;;27.69;37.06;100718.59;4941478;29;1206;-15
2023/07/13 07:49:29;;;;;;;;;;;;;;;27.83;37.76;100718.75;4941594;29;1201;-14
2023/07/13 07:51:54;;;;;;;;;;;;;;;27.81;36.57;100716.22;4941835;29;1066;-15
2023/07/13 07:54:20;;;;;;;;;;;;;;;27.74;36.66;100718.03;4941275;29;895;-15
2023/07/13 07:56:45;;;;;;;;;;;;;;;27.83;36.52;100716.03;4941110;29;1956;-15
2023/07/13 07:59:11;;;;;;;;;;;;;;;27.82;36.91;100709.81;4940812;29;1292;-15
2023/07/13 08:01:36;;;;;;;;;;;;;;;27.30;32.99;100711.56;4941349;29;1288;-15
2023/07/13 08:04:02;;;;;;;;;;;;;;;26.74;33.23;100714.41;4941832;29;1051;-15
2023/07/13 08:06:28;;;;;;;;;;;;;;;26.47;33.14;100708.56;4941517;29;1085;-14
2023/07/13 08:08:54;;;;;;;;;;;;;;;26.90;33.58;100707.19;4941801;29;1091;-14
2023/07/13 08:11:20;;;;;;;;;;;;;;;27.20;33.30;100712.69;4940701;29;1066;-15
2023/07/13 08:13:45;;;;;;;;;;;;;;;27.29;34.60;100718.84;4933658;29;2657;-15
2023/07/13 08:16:11;;;;;;;;;;;;;;;27.51;34.69;100706.25;4940952;29;1910;-14
2023/07/13 08:18:37;;;;;;;;;;;;;;;27.58;34.65;100710.91;4938343;29;876;-14
2023/07/13 08:21:03;;;;;;;;;;;;;;;27.59;35.30;100705.31;4940096;29;1135;-14
2023/07/13 08:23:29;;;;;;;;;;;;;;;27.47;35.58;100707.66;4940441;29;1170;-14
2023/07/13 08:25:54;;;;;;;;;;;;;;;27.42;35.30;100703.84;4941022;29;1022;-14
2023/07/13 08:28:20;;;;;;;;;;;;;;;27.38;35.79;100703.38;4939152;29;1009;-14
2023/07/13 08:30:48;;;;;;;;;;;;;;;27.51;35.67;100703.56;4929820;29;876;-14
2023/07/13 08:33:20;;;;;;;;;;;;;;;27.54;35.32;100712.31;4934539;29;1003;-14
2023/07/13 08:35:49;;;;;;;;;;;;;;;27.63;35.65;100705.78;4939317;29;1903;-14
2023/07/13 08:38:15;;;;;;;;;;;;;;;27.75;35.29;100709.72;4940277;29;1134;-14
2023/07/13 08:40:40;;;;;;;;;;;;;;;27.46;34.16;100713.25;4940676;29;1169;-14
2023/07/13 08:43:06;;;;;;;;;;;;;;;27.50;34.39;100710.00;4921713;29;2350;-14
2023/07/13 08:45:41;;;;;;;;;;;;;;;27.66;34.49;100705.41;4924020;29;1030;-14
2023/07/13 08:48:11;;;;;;;;;;;;;;;27.59;35.37;100705.31;4922671;29;1022;-14
2023/07/13 08:50:40;;;;;;;;;;;;;;;27.65;35.70;100694.78;4922777;29;1127;-14
2023/07/13 08:53:06;;;;;;;;;;;;;;;27.77;35.04;100700.59;4909365;29;1052;-15
2023/07/13 08:55:33;;;;;;;;;;;;;;;26.87;32.62;100697.63;4922742;29;1974;-15
2023/07/13 08:58:11;;;;;;;;;;;;;;;26.33;32.48;100693.97;4940081;29;1182;-14
2023/07/13 09:00:54;;;;;;;;;;;;;;;26.21;32.50;100696.22;4940542;29;1018;-16
2023/07/13 09:03:23;;;;;;;;;;;;;;;26.06;32.43;100687.22;4940675;29;1122;-17
2023/07/13 09:05:56;;;;;;;;;;;;;;;26.25;32.10;100680.50;4940044;29;1126;-16
2023/07/13 09:08:41;;;;;;;;;;;;;;;26.34;31.92;100681.34;4923067;29;1045;-17
2023/07/13 09:11:22;;;;;;;;;;;;;;;27.00;31.56;100691.59;4928030;29;1079;-17
2023/07/13 09:14:00;;;;;;;;;;;;;;;27.24;32.25;100686.97;4938735;29;2457;-17
2023/07/13 09:16:26;;;;;;;;;;;;;;;27.26;32.51;100693.03;4922596;29;1915;-17
2023/07/13 09:18:51;;;;;;;;;;;;;;;27.66;32.37;100694.59;4940057;29;909;-18
2023/07/13 09:21:17;;;;;;;;;;;;;;;27.62;32.85;100685.19;4933369;29;1013;-17
2023/07/13 09:23:43;;;;;;;;;;;;;;;27.16;31.63;100699.72;4939690;29;1045;-16
2023/07/13 09:26:09;;;;;;;;;;;;;;;26.40;32.05;100694.09;4936243;29;1046;-16
2023/07/13 09:28:37;;;;;;;;;;;;;;;26.55;31.80;100693.31;4940187;29;1023;-16
2023/07/13 09:31:05;;;;;;;;;;;;;;;26.34;31.91;100687.56;4922986;29;1010;-16
2023/07/13 09:33:31;;;;;;;;;;;;;;;26.02;32.37;100678.63;4939755;29;1011;-16
2023/07/13 09:35:59;;;;;;;;;;;;;;;26.52;31.69;100689.97;4939939;29;1979;-16
2023/07/13 09:38:31;;;;;;;;;;;;;;;27.08;31.83;100696.09;4939936;29;1122;-16
2023/07/13 09:40:59;;;;;;;;;;;;;;;26.93;30.93;100693.31;4922863;29;1102;-17
2023/07/13 09:43:24;;;;;;;;;;;;;;;27.18;31.78;100687.72;4936773;29;2328;-17
2023/07/13 09:45:50;;;;;;;;;;;;;;;27.64;31.60;100680.44;4936555;29;1202;-18
2023/07/13 09:48:16;;;;;;;;;;;;;;;27.25;31.08;100675.16;4939808;29;1102;-17
2023/07/13 09:50:42;;;;;;;;;;;;;;;27.51;31.33;100679.25;4939155;29;1027;-19
2023/07/13 09:53:18;;;;;;;;;;;;;;;27.53;31.68;100670.94;4938848;29;1261;-19
2023/07/13 09:55:44;;;;;;;;;;;;;;;27.78;32.18;100677.94;4921777;29;1903;-18
2023/07/13 09:58:31;;;;;;;;;;;;;;;27.83;32.33;100673.63;4939459;29;1047;-18
2023/07/13 10:00:58;;;;;;;;;;;;;;;27.80;32.78;100667.75;4939719;29;1126;-18
2023/07/13 10:03:27;;;;;;;;;;;;;;;28.04;32.75;100671.16;4939553;29;1063;-17
2023/07/13 10:05:53;;;;;;;;;;;;;;;27.56;31.21;100665.16;4938883;29;1106;-16
2023/07/13 10:08:27;;;;;;;;;;;;;;;27.73;32.36;100659.56;4939202;29;1121;-18
2023/07/13 10:11:13;;;;;;;;;;;;;;;28.04;32.32;100655.78;4938192;29;1050;-16
2023/07/13 10:13:42;;;;;;;;;;;;;;;27.93;33.18;100653.56;4917302;29;2069;-18
2023/07/13 10:16:07;;;;;;;;;;;;;;;27.96;33.44;100648.59;4938010;29;1887;-16
2023/07/13 10:18:38;;;;;;;;;;;;;;;28.08;33.25;100648.94;4921581;29;1262;-16
2023/07/13 10:21:14;;;;;;;;;;;;;;;28.00;32.21;100640.97;4938706;29;1142;-16
2023/07/13 10:23:39;;;;;;;;;;;;;;;28.08;33.05;100640.84;4938884;29;1214;-16
2023/07/13 10:26:06;;;;;;;;;;;;;;;28.18;33.33;100640.50;4921613;29;1207;-17
2023/07/13 10:28:32;;;;;;;;;;;;;;;28.03;33.79;100639.75;4938726;29;1206;-17
2023/07/13 10:30:58;;;;;;;;;;;;;;;28.09;33.86;100628.16;4938461;29;1269;-17
2023/07/13 10:33:24;;;;;;;;;;;;;;;28.04;34.17;100644.97;4921981;29;1031;-16
2023/07/13 10:35:51;;;;;;;;;;;;;;;28.02;34.19;100649.72;4938868;29;1982;-16
2023/07/13 10:38:23;;;;;;;;;;;;;;;27.88;34.76;100646.03;4938963;29;1104;-17
2023/07/13 10:40:58;;;;;;;;;;;;;;;28.17;34.28;100633.44;4938945;29;1122;-17
2023/07/13 10:43:36;;;;;;;;;;;;;;;28.20;33.84;100638.47;4918311;29;1866;-17
2023/07/13 10:46:02;;;;;;;;;;;;;;;28.07;34.41;100633.75;4938050;29;1193;-17
2023/07/13 10:48:29;;;;;;;;;;;;;;;28.06;34.65;100623.97;4922354;29;1028;-17
2023/07/13 10:50:55;;;;;;;;;;;;;;;28.04;35.07;100630.59;4922057;29;1031;-17
2023/07/13 10:53:33;;;;;;;;;;;;;;;27.98;34.81;100626.78;4938745;29;1138;-17
2023/07/13 10:56:00;;;;;;;;;;;;;;;27.83;32.09;100626.84;4936987;29;1898;-17
2023/07/13 10:58:32;;;;;;;;;;;;;;;27.13;32.92;100623.47;4938512;29;1058;-16
2023/07/13 11:01:00;;;;;;;;;;;;;;;27.63;32.57;100625.56;4938927;29;1007;-18
2023/07/13 11:03:27;;;;;;;;;;;;;;;27.77;33.82;100627.59;4939054;29;1038;-17
2023/07/13 11:06:04;;;;;;;;;;;;;;;28.09;32.34;100628.97;4938402;29;1142;-18
2023/07/13 11:08:33;;;;;;;;;;;;;;;28.03;33.59;100627.06;4938456;29;1133;-18
2023/07/13 11:10:59;;;;;;;;;;;;;;;27.59;31.83;100620.72;4938546;29;1135;-17
2023/07/13 11:13:45;;;;;;;;;;;;;;;27.94;31.88;100626.34;4924763;29;2289;-18
2023/07/13 11:16:26;;;;;;;;;;;;;;;28.01;33.44;100628.28;4937457;29;1966;-18
2023/07/13 11:18:53;;;;;;;;;;;;;;;28.03;33.97;100624.34;4920607;29;1147;-18
2023/07/13 11:21:19;;;;;;;;;;;;;;;28.12;33.96;100630.47;4938201;29;1174;-18
2023/07/13 11:23:45;;;;;;;;;;;;;;;28.15;33.91;100643.59;4938294;29;1147;-18
2023/07/13 11:26:29;;;;;;;;;;;;;;;28.16;34.04;100633.63;4938139;29;1245;-18
2023/07/13 11:28:55;;;;;;;;;;;;;;;28.17;34.37;100632.59;4937417;29;1076;-18
2023/07/13 11:31:22;;;;;;;;;;;;;;;28.36;34.20;100626.56;4938129;29;891;-17
2023/07/13 11:33:55;;;;;;;;;;;;;;;28.00;34.67;100627.44;4921346;29;1094;-18
2023/07/13 11:36:22;;;;;;;;;;;;;;;27.91;34.89;100631.31;4938287;29;1973;-18
2023/07/13 11:38:55;;;;;;;;;;;;;;;28.09;34.81;100623.56;4938832;29;1045;-18
2023/07/13 11:41:21;;;;;;;;;;;;;;;27.93;34.84;100629.22;4921454;29;1150;-18
2023/07/13 11:43:53;;;;;;;;;;;;;;;28.17;34.93;100635.31;4916937;29;2661;-18
2023/07/13 11:46:26;;;;;;;;;;;;;;;28.09;35.06;100609.22;4926263;29;1086;-18
2023/07/13 11:48:52;;;;;;;;;;;;;;;27.78;33.69;100619.31;4938203;29;1078;-17
2023/07/13 11:51:26;;;;;;;;;;;;;;;27.90;34.42;100613.38;4938339;29;1038;-18
2023/07/13 11:53:53;;;;;;;;;;;;;;;28.03;34.86;100612.72;4921020;29;1074;-18
2023/07/13 11:56:18;;;;;;;;;;;;;;;28.06;35.18;100610.44;4937749;29;1974;-18
2023/07/13 11:58:44;;;;;;;;;;;;;;;28.09;35.37;100614.66;4937718;29;1296;-18
2023/07/13 12:01:15;;;;;;;;;;;;;;;28.05;35.37;100618.75;4938390;29;1140;-18
2023/07/13 12:03:41;;;;;;;;;;;;;;;28.05;35.59;100622.28;4921421;29;1050;-18
2023/07/13 12:06:18;;;;;;;;;;;;;;;28.14;35.74;100617.59;4938922;29;1146;-18
2023/07/13 12:08:43;;;;;;;;;;;;;;;27.90;33.43;100619.66;4923575;29;1271;-17
2023/07/13 12:11:16;;;;;;;;;;;;;;;27.72;33.15;100620.06;4941760;29;1198;-18
2023/07/13 12:13:43;;;;;;;;;;;;;;;27.82;35.20;100620.59;4931119;29;2270;-17
2023/07/13 12:16:15;;;;;;;;;;;;;;;27.95;34.14;100619.91;4941561;29;1914;-17
2023/07/13 12:18:41;;;;;;;;;;;;;;;27.97;34.66;100617.88;4912253;29;1044;-18
2023/07/13 12:21:09;;;;;;;;;;;;;;;28.02;34.81;100616.44;4923606;29;1100;-18
2023/07/13 12:23:35;;;;;;;;;;;;;;;27.94;35.19;100609.28;4922874;29;1326;-18
2023/07/13 12:26:02;;;;;;;;;;;;;;;27.96;35.40;100609.94;4924481;29;1221;-17
2023/07/13 12:28:33;;;;;;;;;;;;;;;28.01;35.32;100612.06;4939891;29;1245;-18
2023/07/13 12:31:00;;;;;;;;;;;;;;;28.09;35.62;100617.34;4940715;29;1226;-19
2023/07/13 12:33:28;;;;;;;;;;;;;;;28.06;35.30;100613.16;4941029;29;1214;-17
2023/07/13 12:35:53;;;;;;;;;;;;;;;27.91;34.13;100598.88;4941600;29;1978;-17
2023/07/13 12:38:21;;;;;;;;;;;;;;;27.48;34.03;100589.63;4941004;29;1240;-18
2023/07/13 12:40:49;;;;;;;;;;;;;;;27.48;33.02;100590.47;4940747;29;1026;-18
2023/07/13 12:43:14;;;;;;;;;;;;;;;27.33;33.10;100579.69;4919933;29;2663;-18
2023/07/13 12:45:55;;;;;;;;;;;;;;;27.31;32.62;100587.13;4940637;29;1152;-17
2023/07/13 12:48:21;;;;;;;;;;;;;;;26.79;33.01;100587.03;4940993;29;1062;-16